Time;durP1;ratioP1;P1;durP2;ratioP2;P2;SDS_P1;SDS_P2;PMS_P1;PMS_P2;Temp;Humidity;BMP_temperature;BMP_pressure;BME280_temperature;BME280_humidity;BME280_pressure;Samples;Min_cycle;Max_cycle;Signal;HPM_P1;HPM_P2
2021/07/24 00:00:37;;;;;;;12.13;4.03;;;;;;;17.28;71.03;100448.88;1766522;80;21792;-59
2021/07/24 00:03:42;;;;;;;8.43;3.35;;;;;;;17.26;71.18;100453.80;1767799;80;21331;-60
2021/07/24 00:06:47;;;;;;;10.60;3.60;;;;;;;17.25;71.56;100452.64;1765618;81;21757;-60
2021/07/24 00:09:54;;;;;;;13.25;4.10;;;;;;;17.26;71.41;100452.95;1766226;80;21189;-59
2021/07/24 00:13:00;;;;;;;13.95;4.85;;;;;;;17.26;71.54;100452.95;1765617;80;21193;-60
2021/07/24 00:16:06;;;;;;;15.05;4.33;;;;;;;17.22;71.44;100447.55;1765771;80;21749;-60
2021/07/24 00:19:12;;;;;;;15.43;3.60;;;;;;;17.16;71.46;100448.39;1765617;81;21204;-60
2021/07/24 00:22:18;;;;;;;12.45;3.95;;;;;;;17.12;71.61;100452.14;1765798;80;21209;-59
2021/07/24 00:25:26;;;;;;;9.38;4.15;;;;;;;17.08;71.76;100455.53;1764879;81;21227;-60
2021/07/24 00:28:34;;;;;;;12.37;3.50;;;;;;;17.04;72.00;100459.81;1748887;81;21433;-60
2021/07/24 00:31:42;;;;;;;19.60;3.60;;;;;;;17.03;72.16;100460.33;1765727;81;21275;-60
2021/07/24 00:34:49;;;;;;;12.13;4.65;;;;;;;17.03;72.34;100458.95;1765711;81;21717;-59
2021/07/24 00:37:59;;;;;;;13.60;3.47;;;;;;;17.05;72.43;100451.30;1766048;81;21188;-61
2021/07/24 00:41:08;;;;;;;9.63;3.27;;;;;;;17.04;72.22;100463.96;1766525;81;21215;-60
2021/07/24 00:44:15;;;;;;;14.05;3.62;;;;;;;16.99;72.27;100452.69;1765648;81;21197;-60
2021/07/24 00:47:26;;;;;;;8.08;3.33;;;;;;;16.97;72.52;100458.95;1743478;81;21330;-60
2021/07/24 00:50:34;;;;;;;14.03;3.05;;;;;;;16.96;72.67;100458.13;1747945;81;21248;-60
2021/07/24 00:53:40;;;;;;;14.55;3.02;;;;;;;16.95;72.57;100463.87;1765790;81;21528;-59
2021/07/24 00:56:51;;;;;;;10.28;3.25;;;;;;;16.90;72.47;100458.13;1766128;81;21188;-60
2021/07/24 00:59:57;;;;;;;9.05;3.10;;;;;;;16.86;72.82;100459.61;1768252;80;21346;-60
2021/07/24 01:03:02;;;;;;;16.75;3.20;;;;;;;16.87;72.93;100462.16;1765822;80;21188;-60
2021/07/24 01:06:08;;;;;;;9.28;3.10;;;;;;;16.88;72.90;100457.49;1765951;80;21307;-60
2021/07/24 01:09:15;;;;;;;11.08;3.02;;;;;;;16.91;72.90;100463.45;1765834;81;21728;-60
2021/07/24 01:12:21;;;;;;;16.27;3.50;;;;;;;16.94;72.91;100464.92;1765987;80;21188;-60
2021/07/24 01:15:28;;;;;;;11.12;3.30;;;;;;;16.95;72.81;100466.64;1765725;81;21224;-60
2021/07/24 01:18:34;;;;;;;16.75;3.40;;;;;;;16.94;72.71;100462.16;1766239;81;21196;-59
2021/07/24 01:21:41;;;;;;;15.30;3.10;;;;;;;16.89;72.79;100461.42;1766139;80;21205;-59
2021/07/24 01:24:46;;;;;;;16.40;4.00;;;;;;;16.86;72.88;100466.52;1772493;79;21338;-60
2021/07/24 01:27:53;;;;;;;14.20;3.33;;;;;;;16.84;73.03;100468.68;1773880;80;21403;-60
2021/07/24 01:31:00;;;;;;;13.08;3.33;;;;;;;16.84;73.08;100463.98;1773898;80;21310;-60
2021/07/24 01:34:06;;;;;;;10.28;3.10;;;;;;;16.84;72.99;100465.91;1773536;81;21335;-59
2021/07/24 01:37:12;;;;;;;14.83;3.27;;;;;;;16.79;72.66;100460.17;1776561;80;21361;-60
2021/07/24 01:40:21;;;;;;;14.33;4.05;;;;;;;16.69;72.79;100461.13;1773549;80;21974;-59
2021/07/24 01:43:26;;;;;;;10.85;3.55;;;;;;;16.63;73.05;100464.75;1773385;81;21228;-60
2021/07/24 01:46:30;;;;;;;16.17;4.17;;;;;;;16.63;73.36;100461.98;1773542;81;21323;-60
2021/07/24 01:53:18;;;;;;;23.20;3.60;;;;;;;16.68;73.38;100467.73;1776558;80;21835;-59
2021/07/24 01:56:28;;;;;;;14.03;3.22;;;;;;;16.69;73.34;100465.27;1773034;81;21220;-59
2021/07/24 01:59:36;;;;;;;18.90;4.10;;;;;;;16.70;73.26;100466.44;1748062;81;21212;-59
2021/07/24 02:02:42;;;;;;;16.42;3.47;;;;;;;16.70;73.05;100467.81;1773793;80;21374;-60
2021/07/24 02:05:55;;;;;;;33.25;10.40;;;;;;;16.64;72.85;100467.81;1771830;81;21352;-59
2021/07/24 02:09:03;;;;;;;36.35;11.90;;;;;;;16.56;73.03;100463.88;1773829;80;21705;-59
2021/07/24 02:12:12;;;;;;;38.60;17.77;;;;;;;16.54;73.37;100469.62;1774093;81;21405;-60
2021/07/24 02:15:18;;;;;;;33.05;16.42;;;;;;;16.52;73.35;100470.91;1773941;81;21374;-60
2021/07/24 02:18:27;;;;;;;39.55;16.80;;;;;;;16.48;73.46;100468.23;1773936;81;21263;-60
2021/07/24 02:21:39;;;;;;;40.78;18.02;;;;;;;16.48;73.75;100471.86;1773907;80;21313;-59
2021/07/24 02:24:45;;;;;;;27.85;14.38;;;;;;;16.49;73.62;100473.55;1773367;79;21856;-59
2021/07/24 02:27:55;;;;;;;29.42;13.90;;;;;;;16.42;73.59;100473.54;1766081;80;21728;-59
2021/07/24 02:31:01;;;;;;;19.85;7.75;;;;;;;16.40;73.79;100470.65;1765898;80;21213;-60
2021/07/24 02:34:06;;;;;;;21.57;5.03;;;;;;;16.38;73.87;100467.23;1765805;81;21223;-59
2021/07/24 02:37:12;;;;;;;14.03;3.75;;;;;;;16.41;74.00;100469.61;1745446;81;21311;-61
2021/07/24 02:40:21;;;;;;;14.10;4.50;;;;;;;16.47;73.93;100468.79;1765749;81;21224;-61
2021/07/24 02:43:31;;;;;;;20.07;4.97;;;;;;;16.53;73.75;100470.70;1766329;81;21209;-61
2021/07/24 02:46:37;;;;;;;170.45;97.08;;;;;;;16.62;73.56;100474.11;1765703;81;21759;-60
2021/07/24 02:49:46;;;;;;;54.75;29.75;;;;;;;16.70;73.29;100471.14;1765689;81;21228;-59
2021/07/24 02:52:53;;;;;;;37.50;12.30;;;;;;;16.77;73.03;100471.97;1766099;80;21188;-59
2021/07/24 02:56:00;;;;;;;28.10;10.98;;;;;;;16.82;72.77;100473.05;1765807;81;21562;-59
2021/07/24 02:59:08;;;;;;;16.95;7.25;;;;;;;16.89;72.63;100467.48;1766175;81;21523;-60
2021/07/24 03:02:13;;;;;;;17.73;6.72;;;;;;;16.94;72.41;100474.60;1767216;81;21213;-59
2021/07/24 03:05:21;;;;;;;22.10;7.30;;;;;;;16.98;72.27;100468.98;1765642;81;21201;-60
2021/07/24 03:08:27;;;;;;;17.12;7.53;;;;;;;17.02;72.22;100478.53;1766288;81;21698;-59
2021/07/24 03:11:33;;;;;;;27.95;6.05;;;;;;;17.08;72.14;100479.05;1766628;81;21208;-59
2021/07/24 03:14:41;;;;;;;21.33;10.80;;;;;;;17.13;72.04;100473.20;1766264;80;21585;-59
2021/07/24 03:17:47;;;;;;;18.10;9.70;;;;;;;17.19;71.92;100484.78;1765706;81;21173;-59
2021/07/24 03:20:51;;;;;;;21.50;8.30;;;;;;;17.22;71.87;100477.98;1765706;81;21220;-59
2021/07/24 03:23:58;;;;;;;13.10;5.78;;;;;;;17.29;71.80;100485.72;1765589;81;21340;-59
2021/07/24 03:27:03;;;;;;;12.37;6.30;;;;;;;17.34;71.67;100485.39;1765820;80;21255;-59
2021/07/24 03:30:09;;;;;;;12.88;5.90;;;;;;;17.39;71.48;100489.75;1765728;81;21283;-59
2021/07/24 03:33:15;;;;;;;13.22;6.03;;;;;;;17.46;71.42;100485.59;1765809;80;21717;-59
2021/07/24 03:36:20;;;;;;;11.83;5.22;;;;;;;17.55;71.25;100493.98;1765880;81;21260;-59
2021/07/24 03:39:26;;;;;;;13.43;4.72;;;;;;;17.61;70.97;100491.20;1766079;80;21557;-59
2021/07/24 03:42:31;;;;;;;9.00;4.40;;;;;;;17.68;70.73;100500.31;1765844;80;21169;-60
2021/07/24 03:45:40;;;;;;;8.53;3.65;;;;;;;17.76;70.48;100495.05;1765834;80;21232;-60
2021/07/24 03:48:46;;;;;;;11.93;4.45;;;;;;;17.85;70.25;100499.30;1765817;81;21164;-61
2021/07/24 03:51:52;;;;;;;11.55;4.35;;;;;;;17.94;70.04;100503.50;1765949;80;21506;-60
2021/07/24 03:54:56;;;;;;;6.97;3.98;;;;;;;17.98;69.87;100498.37;1765913;81;21783;-60
2021/07/24 03:58:02;;;;;;;10.15;4.65;;;;;;;18.03;69.78;100497.19;1765983;80;21176;-60
2021/07/24 04:01:07;;;;;;;9.88;4.67;;;;;;;18.11;69.73;100499.14;1765954;80;21601;-60
2021/07/24 04:04:12;;;;;;;8.35;4.22;;;;;;;18.19;69.61;100491.95;1749595;81;21359;-60
2021/07/24 04:07:17;;;;;;;7.00;4.40;;;;;;;18.27;69.49;100497.23;1765759;81;21255;-60
2021/07/24 04:10:23;;;;;;;9.63;4.42;;;;;;;18.35;69.28;100492.82;1765954;80;21224;-60
2021/07/24 04:13:30;;;;;;;10.05;4.30;;;;;;;18.46;69.04;100502.36;1766003;80;21730;-60
2021/07/24 04:16:35;;;;;;;10.30;4.83;;;;;;;18.57;68.77;100491.41;1756756;81;21216;-59
2021/07/24 04:19:42;;;;;;;9.98;4.80;;;;;;;18.68;68.57;100500.95;1699763;84;21249;-61
2021/07/24 04:22:47;;;;;;;6.58;3.67;;;;;;;18.79;68.36;100493.28;1735590;82;21748;-59
2021/07/24 04:25:53;;;;;;;8.05;3.90;;;;;;;18.90;68.17;100493.38;1699954;84;21455;-59
2021/07/24 04:29:00;;;;;;;8.53;4.12;;;;;;;19.02;68.02;100490.71;1730418;82;21390;-60
2021/07/24 04:32:05;;;;;;;11.50;3.98;;;;;;;19.12;67.73;100491.88;1730710;82;21347;-60
2021/07/24 04:35:14;;;;;;;6.12;3.80;;;;;;;19.23;67.63;100485.58;1730532;82;21761;-60
2021/07/24 04:38:20;;;;;;;7.22;4.05;;;;;;;19.37;67.40;100490.50;1730877;82;21887;-60
2021/07/24 04:41:26;;;;;;;10.00;3.77;;;;;;;19.49;67.28;100490.59;1730914;82;21362;-60
2021/07/24 04:44:31;;;;;;;8.03;4.17;;;;;;;19.61;67.17;100494.28;1730807;82;21228;-60
2021/07/24 04:47:36;;;;;;;8.98;4.55;;;;;;;19.71;67.02;100489.04;1730422;82;21350;-59
2021/07/24 04:50:41;;;;;;;9.00;4.50;;;;;;;19.84;66.74;100491.63;1730645;82;21734;-60
2021/07/24 04:53:47;;;;;;;6.60;4.50;;;;;;;19.97;66.63;100495.63;1730350;83;21374;-60
2021/07/24 04:56:53;;;;;;;13.28;5.35;;;;;;;20.10;66.22;100486.59;1730607;82;21769;-60
2021/07/24 04:59:59;;;;;;;14.10;5.72;;;;;;;20.23;65.97;100484.20;1730784;82;21260;-60
2021/07/24 05:03:04;;;;;;;7.92;5.05;;;;;;;20.36;65.96;100487.62;1730603;82;21883;-59
2021/07/24 05:06:11;;;;;;;10.32;5.37;;;;;;;20.52;65.68;100495.82;1730620;82;21887;-60
2021/07/24 05:09:16;;;;;;;8.55;4.92;;;;;;;20.67;65.13;100496.23;1715164;83;21343;-60
2021/07/24 05:12:23;;;;;;;13.13;4.97;;;;;;;20.80;65.00;100490.46;1730716;82;21205;-60
2021/07/24 05:15:28;;;;;;;10.55;4.92;;;;;;;20.94;64.92;100497.50;1730288;83;21228;-59
2021/07/24 05:18:35;;;;;;;7.12;4.53;;;;;;;21.11;64.91;100501.83;1730206;83;21197;-61
2021/07/24 05:21:41;;;;;;;9.03;5.08;;;;;;;21.25;64.26;100492.99;1730295;82;21457;-60
2021/07/24 05:24:47;;;;;;;11.08;5.25;;;;;;;21.40;63.75;100498.08;1730508;82;21358;-60
2021/07/24 05:27:53;;;;;;;12.43;5.90;;;;;;;21.53;63.36;100498.66;1734197;80;21847;-60
2021/07/24 05:30:58;;;;;;;10.23;5.87;;;;;;;21.64;62.50;100496.43;1705309;84;21599;-60
2021/07/24 05:34:04;;;;;;;13.38;6.30;;;;;;;21.78;62.06;100497.87;1749981;81;21240;-60
2021/07/24 05:37:12;;;;;;;11.50;6.25;;;;;;;21.90;61.56;100497.30;1743052;82;21421;-61
2021/07/24 05:40:19;;;;;;;10.03;5.47;;;;;;;22.03;61.08;100498.41;1743115;82;21405;-60
2021/07/24 05:43:24;;;;;;;8.88;5.22;;;;;;;22.14;61.05;100507.28;1765726;81;21373;-60
2021/07/24 05:46:31;;;;;;;9.20;5.50;;;;;;;22.27;60.24;100495.52;1756400;81;21424;-61
2021/07/24 05:49:37;;;;;;;8.65;4.90;;;;;;;22.38;59.85;100496.87;1742495;82;21255;-60
2021/07/24 05:52:43;;;;;;;10.72;4.60;;;;;;;22.49;58.60;100494.56;1742930;82;21188;-59
2021/07/24 05:55:49;;;;;;;7.75;4.87;;;;;;;22.58;56.99;100497.27;1745094;81;21342;-59
2021/07/24 05:58:55;;;;;;;8.93;4.53;;;;;;;22.70;56.54;100498.07;1745611;82;21816;-61
2021/07/24 06:02:04;;;;;;;13.40;4.33;;;;;;;22.80;56.45;100503.81;1741733;82;21262;-60
2021/07/24 06:05:10;;;;;;;8.53;4.92;;;;;;;22.90;55.36;100497.56;1742389;82;21362;-61
2021/07/24 06:08:16;;;;;;;8.40;4.55;;;;;;;23.01;55.99;100505.86;1741889;82;21188;-59
2021/07/24 06:11:22;;;;;;;8.75;4.20;;;;;;;23.11;55.69;100503.25;1754402;81;21727;-59
2021/07/24 06:14:32;;;;;;;6.45;4.67;;;;;;;23.21;54.41;100501.17;1772795;81;21302;-60
2021/07/24 06:17:36;;;;;;;7.10;4.17;;;;;;;23.32;53.53;100505.30;1772855;80;21302;-60
2021/07/24 06:20:47;;;;;;;10.72;4.17;;;;;;;23.40;53.34;100505.41;1772615;81;21342;-61
2021/07/24 06:23:53;;;;;;;7.83;4.53;;;;;;;23.49;53.73;100510.84;1773632;80;21891;-59
2021/07/24 06:26:59;;;;;;;6.58;4.50;;;;;;;23.59;53.84;100506.24;1771868;80;21867;-59
2021/07/24 06:30:04;;;;;;;13.75;4.65;;;;;;;23.70;53.40;100507.25;1746538;80;21219;-60
2021/07/24 06:33:09;;;;;;;7.83;4.65;;;;;;;23.82;52.90;100502.95;1735103;82;21200;-59
2021/07/24 06:36:15;;;;;;;11.90;4.17;;;;;;;23.93;52.31;100508.97;1735631;82;21288;-60
2021/07/24 06:39:21;;;;;;;14.80;5.62;;;;;;;24.03;51.41;100509.11;1719031;82;21354;-59
2021/07/24 06:42:28;;;;;;;11.85;5.08;;;;;;;24.10;50.98;100506.39;1684418;84;21193;-59
2021/07/24 06:45:33;;;;;;;12.35;4.80;;;;;;;24.18;51.04;100505.94;1735395;82;21215;-59
2021/07/24 06:48:40;;;;;;;7.92;4.30;;;;;;;24.26;50.53;100506.88;1735355;82;21216;-59
2021/07/24 06:51:48;;;;;;;8.00;4.50;;;;;;;24.32;50.52;100503.05;1735587;82;21759;-61
2021/07/24 06:54:54;;;;;;;7.95;3.95;;;;;;;24.41;50.93;100500.06;1735335;82;21212;-59
2021/07/24 06:58:03;;;;;;;10.03;4.47;;;;;;;24.50;49.88;100504.08;1739947;81;21224;-60
2021/07/24 07:01:14;;;;;;;6.67;4.55;;;;;;;24.59;49.30;100505.28;1735358;82;21216;-60
2021/07/24 07:04:19;;;;;;;11.05;5.20;;;;;;;24.69;49.09;100507.38;1719544;82;21296;-58
2021/07/24 07:07:25;;;;;;;9.93;4.97;;;;;;;24.74;48.65;100512.48;1738728;81;21288;-59
2021/07/24 07:10:32;;;;;;;8.93;4.17;;;;;;;24.82;48.07;100512.00;1765000;81;21197;-59
2021/07/24 07:13:38;;;;;;;10.70;4.58;;;;;;;24.89;47.92;100513.19;1765175;81;21178;-60
2021/07/24 07:16:43;;;;;;;8.00;5.17;;;;;;;24.96;47.45;100510.45;1764590;81;21392;-61
2021/07/24 07:19:52;;;;;;;12.82;4.70;;;;;;;25.08;47.88;100508.02;1764746;81;21462;-59
2021/07/24 07:22:57;;;;;;;11.45;4.30;;;;;;;25.16;47.67;100514.53;1764803;81;21176;-61
2021/07/24 07:26:05;;;;;;;11.93;4.58;;;;;;;25.26;46.82;100516.84;1764948;81;21733;-60
2021/07/24 07:29:10;;;;;;;7.37;4.65;;;;;;;25.33;46.46;100518.02;1765064;81;21481;-59
2021/07/24 07:32:14;;;;;;;7.28;4.30;;;;;;;25.37;46.37;100519.22;1771695;81;21339;-59
2021/07/24 07:35:20;;;;;;;7.28;4.40;;;;;;;25.42;45.94;100520.09;1752760;81;21208;-59
2021/07/24 07:38:26;;;;;;;5.83;4.17;;;;;;;25.47;45.49;100518.73;1724343;82;21219;-58
2021/07/24 07:41:31;;;;;;;9.73;4.08;;;;;;;25.55;45.00;100516.82;1741848;82;21358;-60
2021/07/24 07:44:38;;;;;;;6.60;3.85;;;;;;;25.64;44.42;100520.80;1709922;83;21520;-61
2021/07/24 07:47:47;;;;;;;9.65;4.15;;;;;;;25.76;44.58;100513.58;1684438;85;21236;-59
2021/07/24 07:50:52;;;;;;;7.08;4.50;;;;;;;25.88;44.08;100514.19;1704413;84;21237;-60
2021/07/24 07:53:58;;;;;;;8.78;4.12;;;;;;;25.98;43.99;100515.11;1742453;82;21327;-60
2021/07/24 07:57:04;;;;;;;7.47;4.42;;;;;;;26.05;43.50;100512.09;1704598;83;21753;-59
2021/07/24 08:00:11;;;;;;;8.40;3.95;;;;;;;26.06;42.45;100522.19;1742288;82;21840;-61
2021/07/24 08:03:17;;;;;;;7.72;3.90;;;;;;;26.02;41.82;100513.46;1724190;82;21184;-59
2021/07/24 08:06:22;;;;;;;7.12;4.08;;;;;;;26.07;41.98;100516.30;1742633;82;21184;-59
2021/07/24 08:09:28;;;;;;;6.40;3.40;;;;;;;26.15;42.00;100528.95;1686656;83;21205;-60
2021/07/24 08:12:33;;;;;;;6.95;3.70;;;;;;;26.19;40.31;100527.30;1742745;82;21394;-60
2021/07/24 08:15:40;;;;;;;8.03;3.90;;;;;;;26.23;40.53;100521.41;1775414;81;21232;-60
2021/07/24 08:18:46;;;;;;;6.83;4.33;;;;;;;26.30;40.01;100529.03;1772642;81;21334;-61
2021/07/24 08:21:52;;;;;;;5.72;4.05;;;;;;;26.35;39.70;100521.45;1773445;80;21331;-60
2021/07/24 08:24:57;;;;;;;6.08;4.08;;;;;;;26.56;40.06;100514.51;1773568;80;21390;-60
2021/07/24 08:28:04;;;;;;;7.10;4.35;;;;;;;26.70;39.68;100517.95;1773495;81;21196;-60
2021/07/24 08:31:08;;;;;;;7.15;4.37;;;;;;;26.87;39.24;100519.94;1735646;79;21216;-60
2021/07/24 08:34:13;;;;;;;9.13;3.92;;;;;;;27.02;39.72;100519.93;1735361;82;22010;-59
2021/07/24 08:37:17;;;;;;;7.67;4.85;;;;;;;27.15;39.32;100523.59;1736614;82;21204;-58
2021/07/24 08:40:24;;;;;;;9.05;3.77;;;;;;;27.13;38.94;100521.62;1735645;82;21259;-59
2021/07/24 08:43:30;;;;;;;4.92;3.60;;;;;;;27.17;39.05;100522.76;1735598;82;21534;-59
2021/07/24 08:46:36;;;;;;;6.05;3.50;;;;;;;27.19;39.06;100523.33;1734959;82;21208;-58
2021/07/24 08:49:43;;;;;;;7.42;3.65;;;;;;;27.16;39.28;100525.86;1734980;82;21227;-58
2021/07/24 08:52:51;;;;;;;8.88;4.10;;;;;;;27.17;38.98;100521.91;1735674;82;21192;-58
2021/07/24 08:55:57;;;;;;;8.18;3.87;;;;;;;27.23;37.88;100518.81;1735511;82;21716;-59
2021/07/24 08:59:05;;;;;;;6.97;3.90;;;;;;;27.33;38.29;100520.81;1719223;82;21354;-59
2021/07/24 09:02:09;;;;;;;5.97;4.00;;;;;;;27.47;37.96;100522.77;1735576;82;21196;-58
2021/07/24 09:05:18;;;;;;;7.85;4.37;;;;;;;27.67;38.72;100511.47;1735553;82;21736;-59
2021/07/24 09:08:25;;;;;;;5.70;3.52;;;;;;;27.86;37.17;100519.58;1735494;82;21271;-60
2021/07/24 09:11:32;;;;;;;9.58;4.30;;;;;;;27.98;37.07;100518.45;1718212;82;21744;-60
2021/07/24 09:14:40;;;;;;;9.68;4.37;;;;;;;28.14;36.67;100513.05;1735597;82;21741;-58
2021/07/24 09:17:48;;;;;;;7.17;4.22;;;;;;;28.21;36.48;100531.90;1719132;82;21193;-60
2021/07/24 09:20:55;;;;;;;7.50;4.00;;;;;;;28.25;36.86;100521.17;1736661;81;21760;-59
2021/07/24 09:24:01;;;;;;;6.85;4.08;;;;;;;28.37;36.39;100511.80;1741692;81;21192;-58
2021/07/24 09:27:06;;;;;;;16.50;4.80;;;;;;;28.43;36.34;100522.50;1764889;80;21183;-60
2021/07/24 09:30:15;;;;;;;7.40;4.20;;;;;;;28.30;36.32;100513.27;1758398;80;21254;-60
2021/07/24 09:33:21;;;;;;;8.40;4.25;;;;;;;28.21;36.47;100511.59;1732656;82;21200;-59
2021/07/24 09:36:41;;;;;;;8.70;3.83;;;;;;;28.14;36.18;100513.05;1746470;81;21255;-58
2021/07/24 09:39:48;;;;;;;7.15;4.30;;;;;;;28.09;35.66;100506.02;1764291;80;21247;-59
2021/07/24 09:42:54;;;;;;;8.20;4.70;;;;;;;28.06;35.63;100509.42;1764520;80;21177;-59
2021/07/24 09:46:21;;;;;;;6.92;3.80;;;;;;;28.09;36.30;100510.25;1765278;80;21224;-59
2021/07/24 09:49:25;;;;;;;5.45;3.98;;;;;;;28.23;35.99;100509.34;1765567;80;21200;-59
2021/07/24 09:52:30;;;;;;;5.08;4.17;;;;;;;28.45;36.09;100499.94;1757913;81;21211;-59
2021/07/24 09:55:38;;;;;;;5.30;4.10;;;;;;;28.60;35.73;100510.31;1713625;82;21310;-59
2021/07/24 09:58:47;;;;;;;6.20;4.35;;;;;;;28.64;35.63;100498.16;1733385;82;21716;-60
2021/07/24 10:02:06;;;;;;;8.28;4.03;;;;;;;28.63;35.78;100501.27;1733859;82;21768;-58
2021/07/24 10:05:13;;;;;;;9.73;6.90;;;;;;;28.50;35.74;100501.91;1734520;82;21888;-59
2021/07/24 10:08:23;;;;;;;7.05;4.40;;;;;;;28.34;35.82;100503.09;1734373;82;22024;-59
2021/07/24 10:11:29;;;;;;;5.40;4.05;;;;;;;28.26;35.66;100506.53;1735586;81;21208;-59
2021/07/24 10:14:35;;;;;;;6.45;4.40;;;;;;;28.25;35.45;100496.38;1756154;81;21236;-58
2021/07/24 10:17:42;;;;;;;9.28;4.92;;;;;;;28.33;35.65;100492.41;1765179;80;21193;-58
2021/07/24 10:20:53;;;;;;;7.12;4.40;;;;;;;28.61;35.21;100493.66;1765191;80;21204;-60
2021/07/24 10:23:58;;;;;;;7.28;4.00;;;;;;;28.86;34.63;100487.87;1765349;80;21263;-60
2021/07/24 10:27:16;;;;;;;6.62;3.83;;;;;;;29.04;34.42;100494.20;1765551;80;21323;-58
2021/07/24 10:30:22;;;;;;;8.73;4.30;;;;;;;29.15;34.38;100485.40;1765654;80;21765;-57
2021/07/24 10:33:28;;;;;;;6.87;4.17;;;;;;;29.24;33.63;100491.23;1766050;80;21251;-59
2021/07/24 10:36:43;;;;;;;6.83;4.28;;;;;;;29.18;33.59;100488.19;1765925;80;21223;-59
2021/07/24 10:39:47;;;;;;;9.03;4.42;;;;;;;29.15;33.75;100495.27;1768309;80;21228;-59
2021/07/24 10:42:54;;;;;;;9.00;4.00;;;;;;;28.98;34.43;100496.23;1749015;81;21899;-60
2021/07/24 10:46:01;;;;;;;10.08;4.70;;;;;;;28.88;35.08;100492.63;1765428;80;21239;-58
2021/07/24 10:49:09;;;;;;;14.18;4.85;;;;;;;28.76;34.12;100497.25;1765757;81;21200;-58
2021/07/24 10:52:17;;;;;;;8.28;6.42;;;;;;;28.61;34.31;100495.92;1765560;80;21204;-59
2021/07/24 10:55:22;;;;;;;8.70;5.95;;;;;;;28.58;34.36;100494.25;1765753;81;21239;-59
2021/07/24 10:58:33;;;;;;;8.58;5.08;;;;;;;28.54;34.12;100500.20;1764809;81;21207;-58
2021/07/24 11:01:54;;;;;;;21.20;10.50;;;;;;;28.53;34.36;100498.50;1765667;81;21312;-59
2021/07/24 11:05:00;;;;;;;5.92;4.30;;;;;;;28.56;34.84;100497.36;1765126;81;21223;-60
2021/07/24 11:08:07;;;;;;;5.35;3.70;;;;;;;28.80;34.03;100492.70;1765503;81;21318;-58
2021/07/24 11:11:19;;;;;;;5.50;4.15;;;;;;;29.02;33.97;100497.31;1751228;80;21287;-61
2021/07/24 11:14:53;;;;;;;5.85;4.00;;;;;;;29.25;33.48;100490.11;1734990;82;21309;-58
2021/07/24 11:18:30;;;;;;;5.12;3.62;;;;;;;29.48;33.49;100496.95;1734644;82;21788;-60
2021/07/24 11:22:19;;;;;;;6.15;4.33;;;;;;;29.50;33.06;100489.00;1734995;82;21737;-59
2021/07/24 11:25:33;;;;;;;7.87;4.37;;;;;;;29.39;33.74;100489.69;1734707;82;21219;-59
2021/07/24 11:28:39;;;;;;;7.62;3.95;;;;;;;29.17;33.66;100489.33;1735261;82;21215;-59
2021/07/24 11:31:45;;;;;;;7.80;4.03;;;;;;;29.17;33.66;100489.33;1745934;81;21815;-60
2021/07/24 11:34:50;;;;;;;7.45;4.22;;;;;;;29.09;33.37;100492.78;1765289;80;21240;-60
2021/07/24 11:37:59;;;;;;;6.17;4.30;;;;;;;28.98;33.49;100492.56;1766257;81;21239;-61
2021/07/24 11:41:10;;;;;;;6.75;4.33;;;;;;;28.90;34.18;100493.19;1766011;80;21226;-60
2021/07/24 11:44:16;;;;;;;8.18;4.42;;;;;;;28.86;33.93;100490.70;1765928;80;21191;-60
2021/07/24 11:47:23;;;;;;;7.80;3.77;;;;;;;28.84;33.99;100493.78;1765835;80;21188;-59
2021/07/24 11:50:29;;;;;;;6.17;3.92;;;;;;;28.86;33.54;100491.52;1765280;81;21212;-59
2021/07/24 11:53:34;;;;;;;6.17;5.17;;;;;;;28.90;33.71;100487.55;1766054;80;21220;-59
2021/07/24 11:56:40;;;;;;;5.80;4.00;;;;;;;28.92;33.94;100494.56;1735344;82;21219;-59
2021/07/24 11:59:48;;;;;;;6.70;4.03;;;;;;;28.85;33.37;100491.81;1735813;82;21239;-60
2021/07/24 12:02:55;;;;;;;5.60;3.62;;;;;;;28.79;33.50;100491.58;1735480;82;21189;-61
2021/07/24 12:06:19;;;;;;;7.15;4.10;;;;;;;28.85;33.32;100488.99;1735261;82;21196;-60
2021/07/24 12:09:25;;;;;;;6.00;3.92;;;;;;;28.96;32.56;100492.86;1736653;81;21227;-58
2021/07/24 12:12:31;;;;;;;8.45;4.42;;;;;;;29.01;32.62;100487.19;1735023;82;21213;-58
2021/07/24 12:16:13;;;;;;;7.65;4.20;;;;;;;29.12;32.65;100482.32;1734769;82;21272;-58
2021/07/24 12:19:21;;;;;;;6.97;4.40;;;;;;;29.28;32.83;100489.52;1734760;82;21212;-58
2021/07/24 12:22:33;;;;;;;5.10;4.25;;;;;;;29.41;32.88;100486.01;1741614;81;22026;-58
2021/07/24 12:25:40;;;;;;;6.55;4.45;;;;;;;29.46;31.99;100486.52;1735199;81;21255;-58
2021/07/24 12:28:47;;;;;;;7.22;4.30;;;;;;;29.42;31.71;100482.59;1735105;82;21780;-57
2021/07/24 12:31:54;;;;;;;8.35;4.28;;;;;;;29.42;32.21;100489.09;1738839;81;21188;-60
2021/07/24 12:35:00;;;;;;;8.43;4.50;;;;;;;29.48;32.42;100494.95;1764732;81;21794;-58
2021/07/24 12:38:12;;;;;;;6.80;4.75;;;;;;;29.57;32.29;100500.23;1764509;81;21521;-60
2021/07/24 12:41:20;;;;;;;7.53;4.55;;;;;;;29.62;31.75;100493.70;1767223;80;21691;-60
2021/07/24 12:44:24;;;;;;;8.45;4.35;;;;;;;29.61;31.63;100489.17;1764706;81;21180;-60
2021/07/24 12:47:30;;;;;;;6.40;4.55;;;;;;;29.61;31.63;100489.17;1734797;82;21224;-60
2021/07/24 12:50:38;;;;;;;8.00;4.10;;;;;;;29.61;31.78;100487.20;1735153;82;21255;-60
2021/07/24 12:53:54;;;;;;;6.40;3.90;;;;;;;29.46;31.45;100500.07;1734724;82;21706;-60
2021/07/24 12:57:01;;;;;;;6.42;4.25;;;;;;;29.46;31.45;100500.07;1734666;82;21179;-60
2021/07/24 13:00:06;;;;;;;5.35;4.15;;;;;;;29.37;31.87;100489.73;1735324;82;21492;-60
2021/07/24 13:03:15;;;;;;;5.10;3.92;;;;;;;29.42;32.31;100493.32;1735213;82;21208;-59
2021/07/24 13:06:28;;;;;;;6.60;4.08;;;;;;;29.42;32.05;100499.52;1735061;82;21231;-60
2021/07/24 13:09:32;;;;;;;5.35;4.03;;;;;;;29.30;32.49;100494.86;1735279;82;21721;-59
2021/07/24 13:12:40;;;;;;;8.45;4.85;;;;;;;29.25;33.02;100504.21;1735132;82;21227;-59
2021/07/24 13:15:47;;;;;;;7.33;4.28;;;;;;;29.21;33.25;100503.95;1735199;82;21255;-60
2021/07/24 13:18:55;;;;;;;8.58;4.70;;;;;;;29.24;33.00;100506.73;1734875;82;21243;-61
2021/07/24 13:22:01;;;;;;;7.80;4.90;;;;;;;29.17;33.53;100507.11;1734778;82;21239;-60
2021/07/24 13:25:20;;;;;;;7.28;4.60;;;;;;;29.15;33.97;100509.38;1752704;81;22023;-61
2021/07/24 13:28:17;;;;;;;8.38;4.40;;;;;;;29.13;34.24;100518.69;1764851;81;21177;-59
2021/07/24 13:31:25;;;;;;;5.33;4.20;;;;;;;29.10;33.78;100509.41;1764560;81;21208;-59
2021/07/24 13:34:31;;;;;;;7.05;4.58;;;;;;;29.11;33.93;100519.54;1765437;81;21196;-59
2021/07/24 13:37:40;;;;;;;10.72;4.40;;;;;;;29.12;33.63;100517.57;1750983;79;21209;-60
2021/07/24 13:40:47;;;;;;;5.53;4.15;;;;;;;29.11;33.69;100515.91;1712859;83;21437;-60
2021/07/24 13:43:52;;;;;;;6.72;4.25;;;;;;;29.09;33.78;100522.39;1750255;81;21232;-60
2021/07/24 13:47:00;;;;;;;7.12;4.10;;;;;;;29.07;33.16;100514.79;1752484;81;21195;-60
2021/07/24 13:50:04;;;;;;;7.75;4.30;;;;;;;29.04;33.72;100518.17;1748154;81;21720;-59
2021/07/24 13:53:11;;;;;;;8.95;5.10;;;;;;;29.05;34.41;100522.09;1752864;81;21752;-59
2021/07/24 13:56:20;;;;;;;7.10;4.53;;;;;;;29.12;34.45;100524.63;1735401;82;21772;-59
2021/07/24 13:59:26;;;;;;;4.85;3.80;;;;;;;29.15;34.22;100524.03;1719117;82;21385;-60
2021/07/24 14:02:32;;;;;;;9.30;6.33;;;;;;;29.16;33.42;100528.55;1734829;82;21219;-59
2021/07/24 14:05:39;;;;;;;7.12;4.87;;;;;;;29.12;33.18;100522.66;1735163;82;21274;-60
2021/07/24 14:08:45;;;;;;;10.88;4.37;;;;;;;29.15;33.59;100518.39;1735090;82;21180;-60
2021/07/24 14:11:51;;;;;;;9.23;5.30;;;;;;;29.28;33.71;100519.13;1735158;82;21271;-60
2021/07/24 14:14:57;;;;;;;7.03;4.70;;;;;;;29.40;32.93;100517.34;1735203;82;21235;-58
2021/07/24 14:18:03;;;;;;;6.80;4.70;;;;;;;29.40;32.93;100517.34;1734546;82;21699;-58
2021/07/24 14:21:07;;;;;;;6.75;4.47;;;;;;;29.41;33.05;100512.81;1735067;82;21872;-60
2021/07/24 14:24:13;;;;;;;7.15;4.87;;;;;;;29.58;32.34;100528.72;1734711;82;21188;-59
2021/07/24 14:27:19;;;;;;;7.90;4.17;;;;;;;29.58;32.34;100528.72;1735134;82;21741;-60
2021/07/24 14:30:27;;;;;;;6.92;4.70;;;;;;;29.58;32.17;100521.66;1747911;81;21207;-59